Number One, Kentucky
Current Conditions -  °F | °C
As of 7:56 PM on Tuesday 21 Oct 2014 (Local Time) from KEKQ Reporting Station
Broken Clouds Broken Clouds  
Wind Chill: 50°   Ceiling: 5500
Heat Index: 50°   Visibility: 10mi
Dew Point: 42°   Wind: 0mph
Humidity: 74%   Direction: NA
Pressure: 30.11"   Gusts: NA
Location:  36.8129°N, 84.8215°W
Report Text: KEKQ 212356Z AUTO 00000KT 10SM BKN055 10/06 A3011 RMK AO2 51016 60001 T01000055 10188 20100 BKN V SCT SLP205
Loading
Personal Weather Stations






























Interactive Weather Map
Tropical Storm Tracking
New forecast layout! Learn more

10-Day Weather Forecast

Advertisements
Track Severe Weather on mobile